createdAt,value
2017-10-13T00:00:51.334Z,91.00
2017-10-13T00:03:18.921Z,90.90
2017-10-13T00:05:46.506Z,90.80
2017-10-13T00:08:14.128Z,90.80
2017-10-13T00:10:41.718Z,90.80
2017-10-13T00:13:09.347Z,90.80
2017-10-13T00:15:36.953Z,90.70
2017-10-13T00:18:04.570Z,90.70
2017-10-13T00:20:32.150Z,91.00
2017-10-13T00:22:59.716Z,90.70
2017-10-13T00:25:27.273Z,90.70
2017-10-13T00:27:54.843Z,90.80
2017-10-13T00:30:22.414Z,90.80
2017-10-13T00:32:49.988Z,91.00
2017-10-13T00:35:17.537Z,91.10
2017-10-13T00:37:45.101Z,91.10
2017-10-13T00:40:12.699Z,91.20
2017-10-13T00:42:41.062Z,91.00
2017-10-13T00:45:08.676Z,91.00
2017-10-13T00:47:36.276Z,90.90
2017-10-13T00:50:03.857Z,91.00
2017-10-13T00:52:32.278Z,91.30
2017-10-13T00:54:59.835Z,91.30
2017-10-13T00:57:27.436Z,91.40
2017-10-13T00:59:55.026Z,91.30
2017-10-13T01:02:22.617Z,91.40
2017-10-13T01:04:50.219Z,91.60
2017-10-13T01:07:17.802Z,91.70
2017-10-13T01:09:46.148Z,91.60
2017-10-13T01:12:13.733Z,91.60
2017-10-13T01:14:41.309Z,91.90
2017-10-13T01:17:09.655Z,92.30
2017-10-13T01:19:37.277Z,92.60
2017-10-13T01:22:04.861Z,92.40
2017-10-13T01:24:32.443Z,92.30
2017-10-13T01:27:00.055Z,92.20
2017-10-13T01:29:27.672Z,92.10
2017-10-13T01:31:55.238Z,92.40
2017-10-13T01:34:22.806Z,92.10
2017-10-13T01:36:51.169Z,92.00
2017-10-13T01:39:18.754Z,92.00
2017-10-13T01:41:47.118Z,92.20
2017-10-13T01:44:14.696Z,92.20
2017-10-13T01:46:42.289Z,92.10
2017-10-13T01:49:09.842Z,92.00
2017-10-13T01:51:37.400Z,92.00
2017-10-13T01:54:04.990Z,92.00
2017-10-13T01:56:32.573Z,92.10
2017-10-13T01:59:00.122Z,92.10
2017-10-13T02:01:27.731Z,92.10
2017-10-13T02:03:55.313Z,92.10
2017-10-13T02:06:22.869Z,92.20
2017-10-13T02:08:50.439Z,92.20
2017-10-13T02:11:18.007Z,92.10
2017-10-13T02:13:45.587Z,92.00
2017-10-13T02:16:13.156Z,92.00
2017-10-13T02:18:40.719Z,91.90
2017-10-13T02:21:09.082Z,91.90
2017-10-13T02:23:36.696Z,91.90
2017-10-13T02:26:04.266Z,91.90
2017-10-13T02:28:31.844Z,91.90
2017-10-13T02:30:59.415Z,91.90
2017-10-13T02:33:26.978Z,91.90
2017-10-13T02:35:54.536Z,91.80
2017-10-13T02:38:22.126Z,91.90
2017-10-13T02:40:50.480Z,92.40
2017-10-13T02:43:18.062Z,92.40
2017-10-13T02:45:46.441Z,92.80
2017-10-13T02:48:14.798Z,92.80
2017-10-13T02:50:42.382Z,92.70
2017-10-13T02:53:10.753Z,92.70
2017-10-13T02:55:38.310Z,92.70
2017-10-13T02:58:06.029Z,92.70
2017-10-13T03:00:33.587Z,92.80
2017-10-13T03:03:01.166Z,92.70
2017-10-13T03:05:28.794Z,92.70
2017-10-13T03:07:56.367Z,92.70
2017-10-13T03:10:23.932Z,92.60
2017-10-13T03:12:51.501Z,92.50
2017-10-13T03:15:19.093Z,92.50
2017-10-13T03:17:46.666Z,92.60
2017-10-13T03:20:15.000Z,92.60
2017-10-13T03:22:42.554Z,92.60
2017-10-13T03:25:10.138Z,92.60
2017-10-13T03:27:37.693Z,92.60
2017-10-13T03:30:12.584Z,92.50
2017-10-13T03:32:40.142Z,92.40
2017-10-13T03:35:07.720Z,92.40
2017-10-13T03:37:35.269Z,92.30
2017-10-13T03:40:02.908Z,92.40
2017-10-13T03:42:30.507Z,92.40
2017-10-13T03:44:58.052Z,92.40
2017-10-13T03:47:25.657Z,92.40
2017-10-13T03:49:53.225Z,92.40
2017-10-13T03:52:22.489Z,92.40
2017-10-13T03:54:50.041Z,92.40
2017-10-13T03:57:17.596Z,92.50
2017-10-13T03:59:45.189Z,92.50
2017-10-13T04:02:12.806Z,92.50
2017-10-13T04:04:40.360Z,92.40
2017-10-13T04:07:07.941Z,92.30
2017-10-13T04:09:35.526Z,92.40
2017-10-13T04:12:03.130Z,92.40
2017-10-13T04:14:30.721Z,92.50
2017-10-13T04:16:58.297Z,92.40
2017-10-13T04:19:25.873Z,92.40
2017-10-13T04:21:53.469Z,92.70
2017-10-13T04:24:21.072Z,92.40
2017-10-13T04:26:48.659Z,92.40
2017-10-13T04:29:16.229Z,92.30
2017-10-13T04:31:43.802Z,92.30
2017-10-13T04:34:12.185Z,92.20
2017-10-13T04:36:40.504Z,92.30
2017-10-13T04:39:08.082Z,92.20
2017-10-13T04:41:35.668Z,92.30
2017-10-13T04:44:03.241Z,92.30
2017-10-13T04:46:31.603Z,92.20
2017-10-13T04:49:00.213Z,92.30
2017-10-13T04:51:27.810Z,92.20
2017-10-13T04:53:55.398Z,92.30
2017-10-13T04:56:22.996Z,92.40
2017-10-13T04:58:50.568Z,92.40
2017-10-13T05:01:18.156Z,92.40
2017-10-13T05:03:45.724Z,92.30
2017-10-13T05:06:13.293Z,92.40
2017-10-13T05:08:40.886Z,92.30
2017-10-13T05:11:09.235Z,92.40
2017-10-13T05:13:36.820Z,92.40
2017-10-13T05:16:05.157Z,92.50
2017-10-13T05:18:32.725Z,92.50
2017-10-13T05:21:00.310Z,92.60
2017-10-13T05:23:27.883Z,92.60
2017-10-13T05:25:56.228Z,92.50
2017-10-13T05:28:23.809Z,92.60
2017-10-13T05:30:52.218Z,92.40
2017-10-13T05:33:19.814Z,92.40
2017-10-13T05:35:47.375Z,92.40
2017-10-13T05:38:14.932Z,92.40
2017-10-13T05:40:42.506Z,92.30
2017-10-13T05:43:10.067Z,92.30
2017-10-13T05:45:37.633Z,92.20
2017-10-13T05:48:05.210Z,92.30
2017-10-13T05:50:33.548Z,92.20
2017-10-13T05:53:01.138Z,92.10
2017-10-13T05:55:28.701Z,92.20
2017-10-13T05:57:56.281Z,92.10
2017-10-13T06:00:24.628Z,92.10
2017-10-13T06:02:52.240Z,92.10
2017-10-13T06:05:19.822Z,92.10
2017-10-13T06:07:47.399Z,91.90
2017-10-13T06:10:14.967Z,92.00
2017-10-13T06:12:42.547Z,92.10
2017-10-13T06:15:10.134Z,92.10
2017-10-13T06:17:38.477Z,92.00
2017-10-13T06:20:06.048Z,92.00
2017-10-13T06:22:33.625Z,91.90
2017-10-13T06:25:01.965Z,91.80
2017-10-13T06:27:29.512Z,91.80
2017-10-13T06:29:57.076Z,91.60
2017-10-13T06:32:24.645Z,91.60
2017-10-13T06:34:52.254Z,91.60
2017-10-13T06:37:20.610Z,91.50
2017-10-13T06:39:48.160Z,91.50
2017-10-13T06:42:15.741Z,91.30
2017-10-13T06:44:44.096Z,91.20
2017-10-13T06:47:11.692Z,91.20
2017-10-13T06:49:39.251Z,91.20
2017-10-13T06:52:06.821Z,91.10
2017-10-13T06:54:34.386Z,90.80
2017-10-13T06:57:01.959Z,90.90
2017-10-13T06:59:29.533Z,90.70
2017-10-13T07:01:57.094Z,90.70
2017-10-13T07:04:24.681Z,90.70
2017-10-13T07:06:52.263Z,90.20
2017-10-13T07:09:20.578Z,90.10
2017-10-13T07:11:48.152Z,90.10
2017-10-13T07:14:15.729Z,90.10
2017-10-13T07:16:43.298Z,89.80
2017-10-13T07:19:10.866Z,89.70
2017-10-13T07:21:38.421Z,89.80
2017-10-13T07:24:06.941Z,90.00
2017-10-13T07:26:34.505Z,89.60
2017-10-13T07:29:02.103Z,88.90
2017-10-13T07:31:30.278Z,89.00
2017-10-13T07:33:57.842Z,89.00
2017-10-13T07:36:25.421Z,89.20
2017-10-13T07:38:52.997Z,89.00
2017-10-13T07:41:21.320Z,88.70
2017-10-13T07:43:48.868Z,88.60
2017-10-13T07:46:16.420Z,88.60
2017-10-13T07:48:43.991Z,88.40
2017-10-13T07:51:11.592Z,88.80
2017-10-13T07:53:39.152Z,88.80
2017-10-13T07:56:06.734Z,88.90
2017-10-13T07:58:35.073Z,88.40
2017-10-13T08:01:02.659Z,88.30
2017-10-13T08:03:30.232Z,88.10
2017-10-13T08:05:58.578Z,87.20
2017-10-13T08:08:26.153Z,87.20
2017-10-13T08:10:53.748Z,87.10
2017-10-13T08:13:21.299Z,86.60
2017-10-13T08:15:49.617Z,86.40
2017-10-13T08:18:17.178Z,86.30
2017-10-13T08:20:44.745Z,86.10
2017-10-13T08:23:12.307Z,85.90
2017-10-13T08:25:39.907Z,85.50
2017-10-13T08:28:08.253Z,85.20
2017-10-13T08:30:35.834Z,85.20
2017-10-13T08:33:03.407Z,85.40
2017-10-13T08:35:31.760Z,84.70
2017-10-13T08:37:59.336Z,84.70
2017-10-13T08:40:27.670Z,84.50
2017-10-13T08:42:55.214Z,84.20
2017-10-13T08:45:22.779Z,83.40
2017-10-13T08:47:50.344Z,83.20
2017-10-13T08:50:17.921Z,82.80
2017-10-13T08:52:45.477Z,82.90
2017-10-13T08:55:13.034Z,82.40
2017-10-13T08:57:40.610Z,82.00
2017-10-13T09:00:08.202Z,81.70
2017-10-13T09:05:18.195Z,81.80
2017-10-13T09:07:45.774Z,81.50
2017-10-13T09:10:23.587Z,81.90
2017-10-13T09:12:51.161Z,81.50
2017-10-13T09:15:18.705Z,83.40
2017-10-13T09:17:46.353Z,80.30
2017-10-13T09:20:13.890Z,79.60
2017-10-13T09:22:47.781Z,80.10
2017-10-13T09:25:16.145Z,79.70
2017-10-13T09:27:43.759Z,79.60
2017-10-13T09:30:11.308Z,79.80
2017-10-13T09:32:41.129Z,79.40
2017-10-13T09:35:10.609Z,79.40
2017-10-13T09:37:42.417Z,78.60
2017-10-13T09:40:10.213Z,78.60
2017-10-13T09:42:38.204Z,79.00
2017-10-13T09:45:06.030Z,78.50
2017-10-13T09:47:33.809Z,77.50
2017-10-13T09:50:01.374Z,78.40
2017-10-13T09:52:28.934Z,77.30
2017-10-13T09:54:56.481Z,76.80
2017-10-13T09:57:24.028Z,76.80
2017-10-13T09:59:51.597Z,76.60
2017-10-13T10:02:19.329Z,76.50
2017-10-13T10:04:46.881Z,76.30
2017-10-13T10:07:14.481Z,76.30
2017-10-13T10:09:42.093Z,75.90
2017-10-13T10:12:09.668Z,75.70
2017-10-13T10:14:38.627Z,74.90
2017-10-13T10:17:08.175Z,74.70
2017-10-13T10:19:35.735Z,74.60
2017-10-13T10:22:03.312Z,74.90
2017-10-13T10:24:30.880Z,72.50
2017-10-13T10:26:58.428Z,71.80
2017-10-13T10:29:25.967Z,71.70
2017-10-13T10:31:53.583Z,72.20
2017-10-13T10:34:21.908Z,71.60
2017-10-13T10:36:49.460Z,71.50
2017-10-13T10:39:17.014Z,71.30
2017-10-13T10:41:44.561Z,70.80
2017-10-13T10:44:12.912Z,70.20
2017-10-13T10:46:40.472Z,70.20
2017-10-13T10:49:08.025Z,71.20
2017-10-13T10:51:35.618Z,68.70
2017-10-13T10:54:03.972Z,67.60
2017-10-13T10:56:31.521Z,67.60
2017-10-13T10:58:59.106Z,67.50
2017-10-13T11:01:27.432Z,65.70
2017-10-13T11:03:55.005Z,65.70
2017-10-13T11:06:22.571Z,64.50
2017-10-13T11:08:50.167Z,63.00
2017-10-13T11:11:18.491Z,62.10
2017-10-13T11:13:46.090Z,62.10
2017-10-13T11:16:14.425Z,61.20
2017-10-13T11:18:42.155Z,61.10
2017-10-13T11:21:10.481Z,58.60
2017-10-13T11:23:38.037Z,58.60
2017-10-13T11:26:05.618Z,58.00
2017-10-13T11:28:35.125Z,57.30
2017-10-13T11:31:02.670Z,57.40
2017-10-13T11:33:30.254Z,56.20
2017-10-13T11:35:57.805Z,56.50
2017-10-13T11:38:25.379Z,54.50
2017-10-13T11:40:52.924Z,54.40
2017-10-13T11:43:20.481Z,55.10
2017-10-13T11:45:48.048Z,56.40
2017-10-13T11:48:15.641Z,55.10
2017-10-13T11:50:43.962Z,54.80
2017-10-13T11:53:11.551Z,54.80
2017-10-13T11:55:39.109Z,54.40
2017-10-13T11:58:06.696Z,54.20
2017-10-13T12:00:35.029Z,54.90
2017-10-13T12:03:02.579Z,54.90
2017-10-13T12:05:30.131Z,54.30
2017-10-13T12:07:57.713Z,53.70
2017-10-13T12:10:25.264Z,54.70
2017-10-13T12:12:52.848Z,55.60
2017-10-13T12:15:20.521Z,56.70
2017-10-13T12:17:48.052Z,58.40
2017-10-13T12:20:15.618Z,58.90
2017-10-13T12:22:43.176Z,56.40
2017-10-13T12:25:10.775Z,56.50
2017-10-13T12:27:39.093Z,54.70
2017-10-13T12:30:06.653Z,54.60
2017-10-13T12:32:34.232Z,54.20
2017-10-13T12:35:01.782Z,51.70
2017-10-13T12:37:29.343Z,52.70
2017-10-13T12:39:56.895Z,53.00
2017-10-13T12:42:24.486Z,51.30
2017-10-13T12:44:52.092Z,50.20
2017-10-13T12:47:24.995Z,50.20
2017-10-13T12:49:52.563Z,50.20
2017-10-13T12:52:20.169Z,50.50
2017-10-13T12:54:47.727Z,52.00
2017-10-13T12:57:15.284Z,51.30
2017-10-13T12:59:42.842Z,52.90
2017-10-13T13:02:10.424Z,51.20
2017-10-13T13:04:37.978Z,52.40
2017-10-13T13:07:05.516Z,53.00
2017-10-13T13:09:33.098Z,52.90
2017-10-13T13:12:00.654Z,53.00
2017-10-13T13:14:28.226Z,52.30
2017-10-13T13:16:55.762Z,54.10
2017-10-13T13:19:23.357Z,53.20
2017-10-13T13:21:50.944Z,53.70
2017-10-13T13:24:19.280Z,52.30
2017-10-13T13:26:46.835Z,52.30
2017-10-13T13:29:14.439Z,53.20
2017-10-13T13:31:42.882Z,56.10
2017-10-13T13:34:10.426Z,56.10
2017-10-13T13:36:38.034Z,56.50
2017-10-13T13:39:06.427Z,56.90
2017-10-13T13:41:33.996Z,57.40
2017-10-13T13:44:02.334Z,58.40
2017-10-13T13:46:29.943Z,58.30
2017-10-13T13:48:57.534Z,59.00
2017-10-13T13:51:25.102Z,59.40
2017-10-13T13:53:52.650Z,59.70
2017-10-13T13:56:20.231Z,59.50
2017-10-13T13:58:47.801Z,59.60
2017-10-13T14:01:15.389Z,60.60
2017-10-13T14:03:43.980Z,59.70
2017-10-13T14:06:12.455Z,59.50
2017-10-13T14:08:40.490Z,59.50
2017-10-13T14:11:08.816Z,58.70
2017-10-13T14:13:36.494Z,58.80
2017-10-13T14:16:04.070Z,58.00
2017-10-13T14:18:31.610Z,56.20
2017-10-13T14:20:59.206Z,56.30
2017-10-13T14:23:26.768Z,57.10
2017-10-13T14:25:54.331Z,57.80
2017-10-13T14:28:21.853Z,57.80
2017-10-13T14:30:49.397Z,58.40
2017-10-13T14:33:16.949Z,59.30
2017-10-13T14:35:45.267Z,60.20
2017-10-13T14:38:12.822Z,60.30
2017-10-13T14:40:40.444Z,60.40
2017-10-13T14:43:08.806Z,61.10
2017-10-13T14:45:36.380Z,61.10
2017-10-13T14:48:04.719Z,62.70
2017-10-13T14:50:32.287Z,62.70
2017-10-13T14:52:59.865Z,63.60
2017-10-13T14:55:27.442Z,63.90
2017-10-13T14:57:55.783Z,64.00
2017-10-13T15:00:23.353Z,63.90
2017-10-13T15:02:50.901Z,63.90
2017-10-13T15:05:18.492Z,63.40
2017-10-13T15:07:46.052Z,63.20
2017-10-13T15:10:13.616Z,62.90
2017-10-13T15:12:41.158Z,63.30
2017-10-13T15:15:08.742Z,62.40
2017-10-13T15:17:37.077Z,62.30
2017-10-13T15:20:04.621Z,62.20
2017-10-13T15:22:32.241Z,62.20
2017-10-13T15:25:06.238Z,62.90
2017-10-13T15:27:39.535Z,62.80
2017-10-13T15:30:12.797Z,62.90
2017-10-13T15:32:45.948Z,62.60
2017-10-13T15:35:19.940Z,63.30
2017-10-13T15:37:53.842Z,63.20
2017-10-13T15:40:27.072Z,63.20
2017-10-13T15:43:00.260Z,63.50
2017-10-13T15:45:42.737Z,63.00
2017-10-13T15:48:15.882Z,63.50
2017-10-13T15:50:48.986Z,63.90
2017-10-13T15:53:16.570Z,63.40
2017-10-13T15:55:44.124Z,63.80
2017-10-13T15:58:11.697Z,63.40
2017-10-13T16:00:39.282Z,63.50
2017-10-13T16:03:07.628Z,64.70
2017-10-13T16:05:35.194Z,64.60
2017-10-13T16:08:02.759Z,64.80
2017-10-13T16:10:30.304Z,65.70
2017-10-13T16:12:57.872Z,66.30
2017-10-13T16:15:25.483Z,66.10
2017-10-13T16:17:53.058Z,67.40
2017-10-13T16:20:20.685Z,68.80
2017-10-13T16:22:49.032Z,70.30
2017-10-13T16:25:16.586Z,70.30
2017-10-13T16:27:45.903Z,70.90
2017-10-13T16:30:13.512Z,71.60
2017-10-13T16:32:41.063Z,72.30
2017-10-13T16:35:08.626Z,72.90
2017-10-13T16:37:36.170Z,73.40
2017-10-13T16:40:04.505Z,75.20
2017-10-13T16:42:33.312Z,74.40
2017-10-13T16:45:01.022Z,74.80
2017-10-13T16:47:28.712Z,75.40
2017-10-13T16:49:56.289Z,75.80
2017-10-13T16:52:24.013Z,76.10
2017-10-13T16:54:51.969Z,76.70
2017-10-13T16:57:19.894Z,77.10
2017-10-13T16:59:48.320Z,78.00
2017-10-13T17:02:15.900Z,78.00
2017-10-13T17:04:44.344Z,78.60
2017-10-13T17:07:13.942Z,78.90
2017-10-13T17:09:43.052Z,79.30
2017-10-13T17:12:11.668Z,79.30
2017-10-13T17:14:39.452Z,79.30
2017-10-13T17:17:07.017Z,79.40
2017-10-13T17:19:34.734Z,79.90
2017-10-13T17:22:02.310Z,80.10
2017-10-13T17:24:29.909Z,80.30
2017-10-13T17:27:00.452Z,80.50
2017-10-13T17:29:28.061Z,80.70
2017-10-13T17:31:55.761Z,81.00
2017-10-13T17:34:23.663Z,81.40
2017-10-13T17:36:51.290Z,81.60
2017-10-13T17:39:19.034Z,82.00
2017-10-13T17:41:46.663Z,82.20
2017-10-13T17:44:14.269Z,82.30
2017-10-13T17:46:42.278Z,82.60
2017-10-13T17:49:11.443Z,83.00
2017-10-13T17:51:39.961Z,82.90
2017-10-13T17:54:08.300Z,83.40
2017-10-13T17:56:35.853Z,83.40
2017-10-13T17:59:03.381Z,83.60
2017-10-13T18:01:30.950Z,83.60
2017-10-13T18:03:58.640Z,83.60
2017-10-13T18:06:26.496Z,83.60
2017-10-13T18:08:54.345Z,83.30
2017-10-13T18:11:23.435Z,83.80
2017-10-13T18:13:51.243Z,83.80
2017-10-13T18:16:18.871Z,84.10
2017-10-13T18:18:46.433Z,84.10
2017-10-13T18:21:14.902Z,84.10
2017-10-13T18:23:42.461Z,84.20
2017-10-13T18:26:10.544Z,84.30
2017-10-13T18:28:38.690Z,84.60
2017-10-13T18:31:07.088Z,85.10
2017-10-13T18:33:35.546Z,85.10
2017-10-13T18:36:04.730Z,85.70
2017-10-13T18:38:35.217Z,85.70
2017-10-13T18:41:04.442Z,86.60
2017-10-13T18:43:32.012Z,86.50
2017-10-13T18:45:59.576Z,86.70
2017-10-13T18:48:27.185Z,87.00
2017-10-13T18:50:56.508Z,88.10
2017-10-13T18:53:24.117Z,87.30
2017-10-13T18:55:52.487Z,86.90
2017-10-13T18:58:20.059Z,86.90
2017-10-13T19:00:49.273Z,86.20
2017-10-13T19:03:17.613Z,86.70
2017-10-13T19:05:45.261Z,86.60
2017-10-13T19:08:12.810Z,87.00
2017-10-13T19:10:40.647Z,87.10
2017-10-13T19:13:09.086Z,87.10
2017-10-13T19:15:36.662Z,87.60
2017-10-13T19:18:04.977Z,87.90
2017-10-13T19:20:33.106Z,87.20
2017-10-13T19:23:00.697Z,87.10
2017-10-13T19:25:28.275Z,87.40
2017-10-13T19:27:55.846Z,87.60
2017-10-13T19:30:24.001Z,88.00
2017-10-13T19:32:51.565Z,88.10
2017-10-13T19:35:19.231Z,88.10
2017-10-13T19:37:46.992Z,88.00
2017-10-13T19:40:14.895Z,88.30
2017-10-13T19:42:42.776Z,88.20
2017-10-13T19:45:10.698Z,88.50
2017-10-13T19:47:38.568Z,89.10
2017-10-13T19:50:06.434Z,89.00
2017-10-13T19:52:34.313Z,88.90
2017-10-13T19:55:02.976Z,88.80
2017-10-13T19:57:30.876Z,88.70
2017-10-13T19:59:59.494Z,87.90
2017-10-13T20:02:28.481Z,87.80
2017-10-13T20:04:56.393Z,88.00
2017-10-13T20:07:24.270Z,88.00
2017-10-13T20:09:52.174Z,87.80
2017-10-13T20:12:20.820Z,88.10
2017-10-13T20:14:48.700Z,88.00
2017-10-13T20:17:17.409Z,88.60
2017-10-13T20:19:46.051Z,88.80
2017-10-13T20:22:13.935Z,88.60
2017-10-13T20:24:41.838Z,88.60
2017-10-13T20:27:09.704Z,88.50
2017-10-13T20:29:37.529Z,88.20
2017-10-13T20:32:05.235Z,88.00
2017-10-13T20:34:33.676Z,87.80
2017-10-13T20:37:01.283Z,87.80
2017-10-13T20:39:29.671Z,87.60
2017-10-13T20:41:58.113Z,87.60
2017-10-13T20:44:25.679Z,87.80
2017-10-13T20:46:53.248Z,87.90
2017-10-13T20:49:20.846Z,87.80
2017-10-13T20:51:49.153Z,87.80
2017-10-13T20:54:16.758Z,87.80
2017-10-13T20:56:44.318Z,87.70
2017-10-13T20:59:11.888Z,87.60
2017-10-13T21:01:40.236Z,87.50
2017-10-13T21:04:07.809Z,87.50
2017-10-13T21:06:35.351Z,87.50
2017-10-13T21:09:02.953Z,87.80
2017-10-13T21:11:31.292Z,88.40
2017-10-13T21:13:58.902Z,88.40
2017-10-13T21:16:27.261Z,88.50
2017-10-13T21:18:54.836Z,88.40
2017-10-13T21:21:23.161Z,88.50
2017-10-13T21:23:50.719Z,88.40
2017-10-13T21:26:18.303Z,88.40
2017-10-13T21:28:45.866Z,88.10
2017-10-13T21:31:13.433Z,88.20
2017-10-13T21:33:40.973Z,88.60
2017-10-13T21:36:08.538Z,88.70
2017-10-13T21:38:36.100Z,89.00
2017-10-13T21:41:03.685Z,89.00
2017-10-13T21:43:31.278Z,88.90
2017-10-13T21:45:58.869Z,88.90
2017-10-13T21:48:26.430Z,89.30
2017-10-13T21:50:53.981Z,89.30
2017-10-13T21:53:21.562Z,89.20
2017-10-13T21:55:49.127Z,89.10
2017-10-13T21:58:16.708Z,88.90
2017-10-13T22:00:45.042Z,88.40
2017-10-13T22:03:12.618Z,88.40
2017-10-13T22:05:40.181Z,88.60
2017-10-13T22:08:07.720Z,88.40
2017-10-13T22:10:35.273Z,88.50
2017-10-13T22:13:02.822Z,88.50
2017-10-13T22:15:30.387Z,88.50
2017-10-13T22:17:57.935Z,88.50
2017-10-13T22:20:25.485Z,88.70
2017-10-13T22:22:53.032Z,88.70
2017-10-13T22:25:21.373Z,88.80
2017-10-13T22:27:48.926Z,88.80
2017-10-13T22:30:16.472Z,88.70
2017-10-13T22:32:44.149Z,88.70
2017-10-13T22:35:11.700Z,88.90
2017-10-13T22:37:39.256Z,88.80
2017-10-13T22:40:06.876Z,88.80
2017-10-13T22:42:35.218Z,88.80
2017-10-13T22:45:02.785Z,88.80
2017-10-13T22:47:30.363Z,88.60
2017-10-13T22:49:58.711Z,88.60
2017-10-13T22:52:26.260Z,88.50
2017-10-13T22:54:53.850Z,88.50
2017-10-13T22:57:21.421Z,88.50
2017-10-13T22:59:49.758Z,88.50
2017-10-13T23:02:17.302Z,88.40
2017-10-13T23:04:44.855Z,88.10
2017-10-13T23:07:12.418Z,88.30
2017-10-13T23:09:39.981Z,88.20
2017-10-13T23:12:07.560Z,88.30
2017-10-13T23:14:35.119Z,88.20
2017-10-13T23:17:02.686Z,88.40
2017-10-13T23:19:30.241Z,88.30
2017-10-13T23:21:57.793Z,88.10
2017-10-13T23:24:25.357Z,88.30
2017-10-13T23:26:52.920Z,88.20
2017-10-13T23:29:20.509Z,88.40
2017-10-13T23:31:48.379Z,88.40
2017-10-13T23:34:15.942Z,88.20
2017-10-13T23:36:44.274Z,88.40
2017-10-13T23:39:11.872Z,88.40
2017-10-13T23:41:39.430Z,88.30
2017-10-13T23:44:07.010Z,88.00
2017-10-13T23:46:35.343Z,88.20
2017-10-13T23:49:02.908Z,88.20
2017-10-13T23:51:30.483Z,88.30
2017-10-13T23:53:58.031Z,88.40
2017-10-13T23:56:25.589Z,88.80
2017-10-13T23:58:53.127Z,89.00
